Matamoras, Ohio
Current Conditions -  °F | °C
As of 1:53 AM on Thursday 18 Dec 2014 (Local Time) from KPKB Reporting Station
Overcast Overcast  
Wind Chill: 20°   Ceiling: 2200
Heat Index: 29°   Visibility: 10mi
Dew Point: 19°   Wind: 10mph
Humidity: 67%   Direction: 290°WNW
Pressure: 30.26"   Gusts: NA
Location:  39.5286°N, 81.1317°W
Report Text: KPKB 180653Z AUTO 29009KT 10SM BKN022 OVC027 M02/M07 A3026 RMK AO2 SLP254 T10171072
Loading
Personal Weather Stations






























Interactive Weather Map New forecast layout! Learn more

10-Day Weather Forecast

Advertisements
Track Severe Weather on mobile